Time;durP1;ratioP1;P1;durP2;ratioP2;P2;SDS_P1;SDS_P2;PMS_P1;PMS_P2;Temp;Humidity;BMP_temperature;BMP_pressure;BME280_temperature;BME280_humidity;BME280_pressure;Samples;Min_cycle;Max_cycle;Signal;HPM_P1;HPM_P2
2021/09/03 00:00:45;;;;;;;7.68;5.57;;;12.10;99.90;;;;;;4993347;28;20038;-82
2021/09/03 00:03:11;;;;;;;9.43;5.40;;;12.10;99.90;;;;;;4990880;28;20848;-82
2021/09/03 00:05:37;;;;;;;10.23;5.30;;;12.10;99.90;;;;;;4978972;28;20110;-81
2021/09/03 00:08:03;;;;;;;8.88;5.20;;;12.10;99.90;;;;;;5004716;28;20504;-82
2021/09/03 00:10:28;;;;;;;10.15;5.78;;;12.00;99.90;;;;;;4980838;28;20400;-80
2021/09/03 00:12:54;;;;;;;8.32;5.25;;;12.00;99.90;;;;;;4980995;28;20042;-81
2021/09/03 00:15:20;;;;;;;8.45;5.80;;;12.00;99.90;;;;;;4987177;28;20128;-81
2021/09/03 00:17:46;;;;;;;9.32;5.57;;;12.00;99.90;;;;;;4987557;28;20038;-82
2021/09/03 00:20:13;;;;;;;8.23;5.32;;;11.90;99.90;;;;;;4983089;28;20038;-82
2021/09/03 00:22:39;;;;;;;9.30;5.35;;;11.90;99.90;;;;;;4971543;28;20070;-80
2021/09/03 00:25:06;;;;;;;8.73;5.97;;;11.90;99.90;;;;;;4995823;28;20463;-82
2021/09/03 00:27:32;;;;;;;8.35;5.20;;;11.80;99.90;;;;;;4964519;28;20403;-80
2021/09/03 00:29:57;;;;;;;8.60;6.07;;;11.80;99.90;;;;;;5003437;28;20048;-80
2021/09/03 00:32:23;;;;;;;8.23;5.40;;;11.80;99.90;;;;;;5005776;28;20041;-82
2021/09/03 00:34:49;;;;;;;8.45;5.68;;;11.80;99.90;;;;;;5000583;28;20037;-82
2021/09/03 00:37:15;;;;;;;11.15;5.90;;;11.80;99.90;;;;;;4985610;28;20444;-82
2021/09/03 00:39:41;;;;;;;9.82;6.30;;;11.80;99.90;;;;;;5004868;28;20029;-81
2021/09/03 00:42:10;;;;;;;13.10;6.80;;;11.90;99.90;;;;;;5004397;28;20084;-81
2021/09/03 00:44:39;;;;;;;12.05;6.68;;;11.80;99.90;;;;;;4985331;28;20030;-81
2021/09/03 00:47:05;;;;;;;8.65;5.93;;;11.80;99.90;;;;;;4989507;28;20050;-81
2021/09/03 00:49:31;;;;;;;9.23;6.22;;;11.80;99.90;;;;;;4977553;28;20042;-81
2021/09/03 00:51:59;;;;;;;7.60;5.25;;;11.80;99.90;;;;;;4997176;28;20058;-81
2021/09/03 00:54:25;;;;;;;10.02;5.93;;;11.80;99.90;;;;;;4991343;28;20416;-80
2021/09/03 00:56:51;;;;;;;8.85;5.18;;;11.70;99.90;;;;;;4986561;28;20078;-82
2021/09/03 00:59:16;;;;;;;8.07;5.75;;;11.70;99.90;;;;;;4996123;28;20512;-81
2021/09/03 01:01:42;;;;;;;9.32;6.32;;;11.70;99.90;;;;;;4986506;28;20037;-82
2021/09/03 01:04:08;;;;;;;10.07;5.50;;;11.70;99.90;;;;;;4991787;28;20061;-81
2021/09/03 01:06:34;;;;;;;8.13;5.50;;;11.70;99.90;;;;;;4978275;28;20038;-81
2021/09/03 01:09:01;;;;;;;7.78;5.35;;;11.70;99.90;;;;;;4985548;28;20065;-82
2021/09/03 01:11:27;;;;;;;9.23;5.80;;;11.60;99.90;;;;;;4988210;28;20026;-81
2021/09/03 01:13:52;;;;;;;9.20;6.05;;;11.60;99.90;;;;;;4992869;28;20428;-82
2021/09/03 01:16:18;;;;;;;9.50;5.80;;;11.50;99.90;;;;;;4982511;28;20492;-81
2021/09/03 01:18:44;;;;;;;12.02;6.15;;;11.50;99.90;;;;;;4970445;28;20432;-82
2021/09/03 01:21:09;;;;;;;10.65;6.07;;;11.60;99.90;;;;;;4988230;28;20069;-80
2021/09/03 01:23:35;;;;;;;8.32;5.38;;;11.50;99.90;;;;;;4953184;28;20042;-81
2021/09/03 01:26:02;;;;;;;8.25;6.22;;;11.50;99.90;;;;;;4976107;28;20045;-82
2021/09/03 01:28:28;;;;;;;6.68;5.00;;;11.50;99.90;;;;;;5009059;28;20111;-81
2021/09/03 01:30:53;;;;;;;8.65;5.30;;;11.50;99.90;;;;;;4965541;28;20501;-80
2021/09/03 01:33:19;;;;;;;8.80;5.72;;;11.50;99.90;;;;;;4985073;28;20764;-82
2021/09/03 01:35:44;;;;;;;9.27;5.30;;;11.40;99.90;;;;;;4984344;28;20369;-82
2021/09/03 01:38:10;;;;;;;9.82;5.93;;;11.40;99.90;;;;;;4998971;28;20166;-82
2021/09/03 01:40:36;;;;;;;8.43;5.57;;;11.40;99.90;;;;;;4995711;28;20085;-82
2021/09/03 01:43:02;;;;;;;7.18;4.97;;;11.40;99.90;;;;;;4980113;28;20050;-81
2021/09/03 01:45:27;;;;;;;7.85;5.60;;;11.40;99.90;;;;;;5000681;28;20030;-82
2021/09/03 01:47:53;;;;;;;8.05;5.50;;;11.30;99.90;;;;;;5004065;28;20046;-82
2021/09/03 01:50:19;;;;;;;7.45;4.80;;;11.40;99.90;;;;;;4967920;28;20072;-81
2021/09/03 01:52:44;;;;;;;8.00;5.70;;;11.30;99.90;;;;;;4989519;28;20095;-82
2021/09/03 01:55:10;;;;;;;7.13;5.30;;;11.30;99.90;;;;;;4974330;28;20038;-82
2021/09/03 01:57:36;;;;;;;8.98;5.38;;;11.30;99.90;;;;;;5004380;28;20041;-82
2021/09/03 02:00:03;;;;;;;8.93;5.25;;;11.30;99.90;;;;;;4976317;28;20033;-82
2021/09/03 02:02:38;;;;;;;9.35;4.90;;;11.20;99.90;;;;;;5001762;28;20038;-82
2021/09/03 02:05:04;;;;;;;8.48;5.70;;;11.20;99.90;;;;;;4963422;28;20094;-82
2021/09/03 02:07:29;;;;;;;7.68;5.20;;;11.10;99.90;;;;;;4981553;28;20060;-82
2021/09/03 02:09:55;;;;;;;8.30;5.63;;;11.10;99.90;;;;;;5001884;28;20475;-82
2021/09/03 02:12:21;;;;;;;7.63;5.15;;;11.10;99.90;;;;;;4986079;28;20499;-82
2021/09/03 02:14:46;;;;;;;8.45;5.28;;;11.10;99.90;;;;;;4964510;28;20041;-82
2021/09/03 02:17:12;;;;;;;7.90;5.22;;;11.10;99.90;;;;;;5002621;28;20058;-81
2021/09/03 02:19:39;;;;;;;7.35;4.75;;;11.10;99.90;;;;;;5006084;28;20053;-82
2021/09/03 02:22:05;;;;;;;6.72;4.80;;;11.00;99.90;;;;;;4981197;28;20045;-81
2021/09/03 02:24:30;;;;;;;8.93;5.10;;;11.00;99.90;;;;;;4999491;28;20030;-81
2021/09/03 02:26:57;;;;;;;7.65;5.13;;;11.00;99.90;;;;;;4996444;28;20037;-82
2021/09/03 02:29:22;;;;;;;9.13;4.97;;;11.00;99.90;;;;;;4985524;28;20040;-82
2021/09/03 02:31:48;;;;;;;8.35;4.80;;;10.90;99.90;;;;;;4988943;28;20034;-82
2021/09/03 02:34:14;;;;;;;7.57;4.93;;;10.90;99.90;;;;;;4952868;28;20065;-80
2021/09/03 02:36:40;;;;;;;5.60;3.95;;;10.90;99.90;;;;;;4994052;28;20054;-80
2021/09/03 02:39:06;;;;;;;8.02;4.82;;;10.90;99.90;;;;;;4965705;28;20035;-80
2021/09/03 02:41:32;;;;;;;9.25;5.38;;;10.90;99.90;;;;;;4984265;28;20050;-80
2021/09/03 02:43:58;;;;;;;7.90;5.60;;;10.90;99.90;;;;;;4960439;28;20117;-80
2021/09/03 02:46:24;;;;;;;6.30;4.70;;;10.80;99.90;;;;;;4982827;28;20088;-80
2021/09/03 02:48:54;;;;;;;8.07;5.40;;;10.80;99.90;;;;;;5002141;28;20023;-80
2021/09/03 02:51:20;;;;;;;6.10;4.40;;;10.80;99.90;;;;;;4991237;28;20037;-80
2021/09/03 02:53:48;;;;;;;7.13;4.78;;;10.80;99.90;;;;;;4998627;28;20399;-80
2021/09/03 02:56:14;;;;;;;5.28;3.97;;;10.80;99.90;;;;;;4964754;28;20038;-80
2021/09/03 02:58:41;;;;;;;6.25;4.65;;;10.70;99.90;;;;;;4991101;28;20037;-80
2021/09/03 03:01:08;;;;;;;6.90;4.72;;;10.70;99.90;;;;;;4965983;28;20046;-80
2021/09/03 03:03:33;;;;;;;7.35;5.00;;;10.70;99.90;;;;;;4985909;28;20069;-80
2021/09/03 03:05:59;;;;;;;8.27;4.75;;;10.60;99.90;;;;;;4974585;28;20110;-80
2021/09/03 03:08:29;;;;;;;5.63;4.25;;;10.60;99.90;;;;;;4976104;28;20037;-80
2021/09/03 03:10:56;;;;;;;7.75;5.10;;;10.60;99.90;;;;;;4980252;28;20137;-80
2021/09/03 03:13:26;;;;;;;8.88;4.38;;;10.60;99.90;;;;;;4992385;28;20038;-81
2021/09/03 03:15:55;;;;;;;7.45;4.72;;;10.60;99.90;;;;;;4961006;28;20042;-80
2021/09/03 03:18:21;;;;;;;7.90;4.78;;;10.60;99.90;;;;;;5002137;28;20134;-80
2021/09/03 03:20:57;;;;;;;7.22;5.00;;;10.50;99.90;;;;;;5003452;28;20559;-80
2021/09/03 03:23:23;;;;;;;8.40;5.38;;;10.50;99.90;;;;;;5009726;28;20049;-80
2021/09/03 03:25:48;;;;;;;9.38;5.50;;;10.50;99.90;;;;;;4981334;28;20034;-80
2021/09/03 03:28:15;;;;;;;8.07;4.82;;;10.50;99.90;;;;;;4998461;28;20519;-80
2021/09/03 03:30:46;;;;;;;6.88;4.55;;;10.50;99.90;;;;;;5003611;28;20030;-80
2021/09/03 03:33:12;;;;;;;6.15;4.55;;;10.50;99.90;;;;;;4983568;28;20038;-80
2021/09/03 03:35:38;;;;;;;9.52;5.57;;;10.50;99.90;;;;;;4969525;28;20038;-80
2021/09/03 03:38:04;;;;;;;7.53;5.10;;;10.40;99.90;;;;;;4982895;28;20034;-80
2021/09/03 03:40:30;;;;;;;7.90;5.00;;;10.50;99.90;;;;;;5005187;28;20397;-82
2021/09/03 03:42:55;;;;;;;9.15;5.43;;;10.50;99.90;;;;;;5005986;28;20046;-80
2021/09/03 03:45:21;;;;;;;5.57;4.28;;;10.40;99.90;;;;;;4982031;28;20548;-81
2021/09/03 03:47:47;;;;;;;7.53;4.70;;;10.40;99.90;;;;;;4987953;28;20030;-80
2021/09/03 03:50:13;;;;;;;6.65;4.40;;;10.40;99.90;;;;;;4987716;28;20495;-80
2021/09/03 03:52:39;;;;;;;6.55;4.15;;;10.40;99.90;;;;;;4966325;28;20049;-80
2021/09/03 03:55:05;;;;;;;6.80;4.63;;;10.40;99.90;;;;;;4999362;28;20049;-80
2021/09/03 03:57:31;;;;;;;6.13;4.05;;;10.40;99.90;;;;;;4950146;28;20488;-80
2021/09/03 03:59:56;;;;;;;5.75;4.22;;;10.40;99.90;;;;;;4970461;28;20038;-80
2021/09/03 04:02:22;;;;;;;6.88;4.70;;;10.30;99.90;;;;;;4987135;28;20040;-80
2021/09/03 04:04:48;;;;;;;5.55;4.07;;;10.30;99.90;;;;;;4970913;28;20045;-80
2021/09/03 04:07:14;;;;;;;5.97;4.70;;;10.30;99.90;;;;;;4990021;28;20073;-80
2021/09/03 04:09:40;;;;;;;6.57;4.63;;;10.30;99.90;;;;;;4985842;28;20046;-80
2021/09/03 04:12:08;;;;;;;7.78;5.05;;;10.30;99.90;;;;;;4970618;28;20048;-80
2021/09/03 04:14:33;;;;;;;9.02;6.00;;;10.20;99.90;;;;;;5006331;28;20082;-80
2021/09/03 04:16:59;;;;;;;9.23;6.50;;;10.20;99.90;;;;;;4991257;28;20030;-79
2021/09/03 04:19:25;;;;;;;11.25;6.45;;;10.20;99.90;;;;;;4996347;28;20058;-80
2021/09/03 04:21:50;;;;;;;9.13;5.57;;;10.20;99.90;;;;;;4999269;28;20381;-80
2021/09/03 04:24:16;;;;;;;9.82;6.40;;;10.20;99.90;;;;;;4975677;28;20439;-80
2021/09/03 04:26:43;;;;;;;8.63;5.85;;;10.10;99.90;;;;;;4968667;28;20041;-80
2021/09/03 04:29:09;;;;;;;11.40;5.75;;;10.10;99.90;;;;;;4981728;28;20385;-80
2021/09/03 04:31:35;;;;;;;10.02;6.07;;;10.10;99.90;;;;;;4985955;28;20033;-80
2021/09/03 04:34:00;;;;;;;8.18;5.40;;;10.10;99.90;;;;;;4995729;28;20484;-80
2021/09/03 04:36:26;;;;;;;10.02;5.72;;;10.10;99.90;;;;;;4991573;28;20048;-80
2021/09/03 04:38:52;;;;;;;8.35;5.57;;;10.10;99.90;;;;;;4983187;28;20526;-80
2021/09/03 04:41:17;;;;;;;7.00;4.93;;;10.10;99.90;;;;;;5000604;28;20041;-80
2021/09/03 04:43:43;;;;;;;7.45;5.07;;;10.10;99.90;;;;;;4959060;28;20110;-80
2021/09/03 04:46:09;;;;;;;7.20;4.75;;;10.00;99.90;;;;;;4962577;28;20140;-80
2021/09/03 04:48:35;;;;;;;8.50;4.80;;;10.10;99.90;;;;;;4985962;28;20377;-80
2021/09/03 04:51:00;;;;;;;6.65;4.20;;;10.00;99.90;;;;;;4967791;28;20049;-80
2021/09/03 04:53:26;;;;;;;5.95;4.03;;;10.00;99.90;;;;;;4987342;28;21022;-80
2021/09/03 04:55:53;;;;;;;11.15;5.13;;;10.00;99.90;;;;;;4979734;28;20041;-80
2021/09/03 04:58:19;;;;;;;7.18;4.82;;;10.10;99.90;;;;;;5002109;28;20042;-80
2021/09/03 05:00:44;;;;;;;7.60;4.65;;;10.10;99.90;;;;;;4984682;28;20040;-80
2021/09/03 05:03:10;;;;;;;7.15;5.15;;;10.00;99.90;;;;;;4975428;28;20026;-80
2021/09/03 05:05:36;;;;;;;7.57;4.10;;;10.00;99.90;;;;;;4980214;28;20081;-80
2021/09/03 05:08:02;;;;;;;8.10;4.93;;;10.10;99.90;;;;;;4985008;28;20069;-80
2021/09/03 05:10:28;;;;;;;7.40;5.13;;;10.10;99.90;;;;;;4981975;28;20036;-81
2021/09/03 05:12:53;;;;;;;7.95;4.85;;;10.10;99.90;;;;;;4988539;28;20037;-79
2021/09/03 05:15:23;;;;;;;7.15;4.95;;;10.10;99.90;;;;;;4983460;28;20069;-81
2021/09/03 05:17:50;;;;;;;8.52;4.70;;;10.10;99.90;;;;;;4983579;28;20041;-80
2021/09/03 05:20:17;;;;;;;5.63;3.60;;;10.10;99.90;;;;;;4982966;28;20408;-80
2021/09/03 05:22:43;;;;;;;5.88;4.03;;;10.20;99.90;;;;;;5004321;28;20045;-80
2021/09/03 05:25:10;;;;;;;7.25;3.80;;;10.20;99.90;;;;;;4982740;28;20034;-80
2021/09/03 05:27:36;;;;;;;6.80;4.18;;;10.20;99.90;;;;;;4981122;28;20037;-80
2021/09/03 05:30:04;;;;;;;6.93;3.83;;;10.20;99.90;;;;;;4962796;28;20042;-80
2021/09/03 05:32:29;;;;;;;7.50;5.15;;;10.20;99.90;;;;;;4981639;28;20468;-80
2021/09/03 05:34:55;;;;;;;7.03;4.15;;;10.30;99.90;;;;;;4981543;28;20025;-80
2021/09/03 05:37:21;;;;;;;5.75;3.80;;;10.30;99.90;;;;;;5001545;28;20030;-80
2021/09/03 05:39:46;;;;;;;5.95;4.18;;;10.40;99.90;;;;;;4969831;28;20042;-80
2021/09/03 05:42:12;;;;;;;7.15;4.45;;;10.50;99.90;;;;;;5001467;28;20092;-80
2021/09/03 05:44:38;;;;;;;6.25;4.43;;;10.50;99.90;;;;;;4973236;28;20030;-80
2021/09/03 05:47:04;;;;;;;10.38;4.82;;;10.60;99.90;;;;;;4995946;28;20027;-80
2021/09/03 05:49:30;;;;;;;6.50;4.80;;;10.60;99.90;;;;;;4968642;28;20475;-80
2021/09/03 05:51:55;;;;;;;8.30;5.20;;;10.70;99.90;;;;;;4982398;28;20030;-80
2021/09/03 05:54:21;;;;;;;8.35;5.60;;;10.80;99.90;;;;;;4953520;28;20058;-80
2021/09/03 05:56:47;;;;;;;9.18;5.80;;;11.00;99.90;;;;;;4995631;28;20034;-80
2021/09/03 05:59:13;;;;;;;10.80;6.57;;;11.20;99.90;;;;;;4955159;28;20485;-80
2021/09/03 06:01:38;;;;;;;10.43;6.20;;;11.50;99.90;;;;;;4970914;23;20583;-81
2021/09/03 06:04:04;;;;;;;7.97;6.03;;;11.70;99.90;;;;;;5021339;28;20083;-81
2021/09/03 06:06:30;;;;;;;7.75;5.18;;;12.10;99.90;;;;;;4989185;28;20492;-81
2021/09/03 06:08:55;;;;;;;7.32;5.13;;;12.40;99.90;;;;;;4996939;28;20468;-81
2021/09/03 06:11:24;;;;;;;4.95;3.58;;;12.80;99.90;;;;;;4998467;28;20026;-81
2021/09/03 06:13:54;;;;;;;6.35;4.53;;;13.20;99.90;;;;;;5000514;28;20070;-81
2021/09/03 06:16:20;;;;;;;5.90;4.38;;;13.50;99.90;;;;;;4993430;28;20395;-81
2021/09/03 06:18:46;;;;;;;5.97;4.15;;;13.80;99.90;;;;;;5012860;28;20117;-81
2021/09/03 06:21:11;;;;;;;6.90;4.45;;;14.00;99.90;;;;;;4968835;28;20133;-81
2021/09/03 06:23:37;;;;;;;6.25;4.35;;;14.30;99.90;;;;;;4967661;28;20048;-81
2021/09/03 06:26:03;;;;;;;6.35;4.40;;;14.50;99.90;;;;;;5002259;28;20057;-81
2021/09/03 06:28:29;;;;;;;6.22;4.40;;;14.80;99.90;;;;;;4996238;28;20041;-81
2021/09/03 06:30:54;;;;;;;6.15;4.32;;;15.00;99.90;;;;;;4992588;28;20037;-81
2021/09/03 06:33:20;;;;;;;4.97;3.78;;;15.20;99.90;;;;;;4975719;28;20038;-81
2021/09/03 06:35:46;;;;;;;5.85;4.15;;;15.50;99.90;;;;;;4965764;28;20031;-82
2021/09/03 06:38:11;;;;;;;4.85;4.18;;;15.70;99.90;;;;;;4944774;28;20090;-81
2021/09/03 06:40:37;;;;;;;7.70;4.50;;;15.90;99.90;;;;;;4987739;28;20036;-81
2021/09/03 06:43:03;;;;;;;6.30;4.05;;;16.10;99.90;;;;;;4995588;28;20069;-81
2021/09/03 06:45:28;;;;;;;6.78;4.25;;;16.40;99.90;;;;;;4984669;28;20031;-81
2021/09/03 06:47:54;;;;;;;5.82;4.00;;;16.60;99.90;;;;;;5008206;28;20446;-81
2021/09/03 06:50:20;;;;;;;4.72;3.78;;;16.80;99.90;;;;;;4990050;28;20057;-81
2021/09/03 06:52:46;;;;;;;9.18;4.68;;;17.00;99.90;;;;;;4993500;28;20404;-81
2021/09/03 06:55:12;;;;;;;7.03;4.60;;;17.20;99.90;;;;;;4984435;28;20039;-81
2021/09/03 06:57:41;;;;;;;6.28;4.07;;;17.40;99.90;;;;;;5000441;28;20037;-81
2021/09/03 07:00:07;;;;;;;6.25;3.95;;;17.60;99.90;;;;;;4991917;28;20045;-81
2021/09/03 07:02:33;;;;;;;9.48;4.35;;;17.80;99.90;;;;;;4959996;28;20035;-81
2021/09/03 07:04:59;;;;;;;4.55;3.78;;;18.00;99.90;;;;;;4967937;28;20038;-82
2021/09/03 07:07:25;;;;;;;5.35;3.92;;;18.10;99.90;;;;;;5005156;28;20026;-81
2021/09/03 07:09:51;;;;;;;5.28;3.65;;;18.30;99.90;;;;;;4968207;28;20419;-81
2021/09/03 07:12:17;;;;;;;5.40;3.95;;;18.50;99.90;;;;;;4986287;28;20488;-82
2021/09/03 07:14:44;;;;;;;6.30;4.43;;;18.70;99.90;;;;;;4987581;28;20038;-82
2021/09/03 07:17:10;;;;;;;5.70;4.15;;;18.90;99.90;;;;;;4991358;28;20435;-82
2021/09/03 07:19:36;;;;;;;4.88;3.67;;;19.10;99.90;;;;;;5003961;28;20053;-81
2021/09/03 07:22:03;;;;;;;7.13;3.63;;;19.30;99.90;;;;;;4976139;28;20038;-82
2021/09/03 07:24:29;;;;;;;5.88;3.92;;;19.50;99.90;;;;;;4984737;28;20647;-82
2021/09/03 07:26:56;;;;;;;5.65;3.75;;;19.60;99.90;;;;;;4972417;28;21051;-82
2021/09/03 07:29:22;;;;;;;4.97;3.85;;;19.60;99.90;;;;;;5000124;28;20062;-82
2021/09/03 07:31:47;;;;;;;6.13;3.60;;;19.80;99.90;;;;;;4970506;28;20624;-82
2021/09/03 07:34:13;;;;;;;5.15;3.78;;;19.60;99.90;;;;;;4979215;28;20481;-82
2021/09/03 07:36:39;;;;;;;5.57;3.70;;;19.60;99.90;;;;;;4986964;28;20121;-81
2021/09/03 07:39:04;;;;;;;7.07;4.35;;;19.60;99.90;;;;;;4993929;28;20073;-82
2021/09/03 07:41:30;;;;;;;4.82;3.30;;;19.60;99.90;;;;;;4999681;28;20049;-81
2021/09/03 07:43:57;;;;;;;5.25;3.65;;;19.50;99.90;;;;;;4975377;28;20496;-82
2021/09/03 07:46:23;;;;;;;4.47;3.42;;;19.50;99.90;;;;;;4991326;28;20034;-81
2021/09/03 07:48:48;;;;;;;5.60;3.75;;;19.50;99.90;;;;;;4988599;28;20389;-81
2021/09/03 07:51:15;;;;;;;4.22;3.30;;;19.50;99.90;;;;;;4967084;28;20035;-82
2021/09/03 07:53:41;;;;;;;5.15;3.80;;;19.50;99.90;;;;;;4994677;28;20537;-81
2021/09/03 07:56:07;;;;;;;6.20;3.35;;;19.40;99.90;;;;;;5000367;28;20045;-81
2021/09/03 07:58:33;;;;;;;5.30;3.67;;;19.40;99.90;;;;;;5004252;28;20030;-81
2021/09/03 08:01:00;;;;;;;7.05;4.03;;;19.30;99.90;;;;;;5000544;28;20049;-81
2021/09/03 08:03:26;;;;;;;5.20;3.88;;;19.20;99.90;;;;;;4997420;28;20038;-81
2021/09/03 08:05:52;;;;;;;7.20;3.60;;;19.30;99.90;;;;;;5003085;28;20053;-81
2021/09/03 08:08:17;;;;;;;4.45;3.35;;;19.40;99.90;;;;;;5002852;28;20034;-81
2021/09/03 08:10:43;;;;;;;5.50;4.10;;;19.50;99.90;;;;;;4985314;28;20042;-82
2021/09/03 08:13:09;;;;;;;5.50;3.97;;;19.50;99.90;;;;;;4961502;28;20030;-81
2021/09/03 08:15:36;;;;;;;4.30;3.53;;;19.60;99.90;;;;;;5003168;28;20026;-81
2021/09/03 08:18:03;;;;;;;5.00;3.42;;;19.60;99.90;;;;;;4967093;28;20117;-82
2021/09/03 08:20:29;;;;;;;4.35;3.10;;;19.60;99.90;;;;;;5003926;28;20032;-81
2021/09/03 08:22:55;;;;;;;4.60;3.40;;;19.60;99.90;;;;;;4977404;28;20037;-81
2021/09/03 08:25:21;;;;;;;4.78;3.30;;;19.70;99.90;;;;;;5004674;28;20026;-81
2021/09/03 08:27:48;;;;;;;4.20;2.97;;;19.70;99.90;;;;;;5003970;28;20022;-81
2021/09/03 08:30:15;;;;;;;3.33;2.65;;;19.80;99.90;;;;;;4983252;28;20039;-81
2021/09/03 08:32:42;;;;;;;3.17;2.65;;;19.80;99.90;;;;;;4979357;28;20027;-81
2021/09/03 08:35:08;;;;;;;3.67;3.00;;;19.80;99.90;;;;;;5005210;28;20084;-81
2021/09/03 08:37:34;;;;;;;5.78;3.35;;;19.80;99.90;;;;;;4999246;28;20130;-82
2021/09/03 08:39:59;;;;;;;4.28;2.88;;;19.80;99.90;;;;;;4980301;28;20099;-82
2021/09/03 08:42:26;;;;;;;3.13;2.83;;;19.80;99.90;;;;;;4993407;28;20029;-81
2021/09/03 08:44:55;;;;;;;4.10;2.80;;;19.80;99.90;;;;;;4974930;28;20088;-81
2021/09/03 08:47:21;;;;;;;6.00;3.17;;;19.80;99.90;;;;;;5014634;28;20026;-81
2021/09/03 08:49:48;;;;;;;4.97;2.95;;;19.80;99.90;;;;;;4989275;28;20121;-81
2021/09/03 08:52:15;;;;;;;3.10;2.67;;;19.80;99.90;;;;;;4996744;28;20121;-81
2021/09/03 08:54:40;;;;;;;5.90;3.03;;;19.80;99.90;;;;;;4984372;28;20113;-81
2021/09/03 08:57:06;;;;;;;4.85;2.80;;;19.80;99.90;;;;;;4984407;28;20496;-82
2021/09/03 08:59:32;;;;;;;6.93;3.22;;;19.70;99.90;;;;;;4995780;28;20050;-80
2021/09/03 09:02:08;;;;;;;4.35;3.00;;;19.70;99.90;;;;;;4995368;28;20049;-81
2021/09/03 09:04:45;;;;;;;3.22;2.78;;;19.70;99.90;;;;;;4979577;28;20101;-81
2021/09/03 09:07:11;;;;;;;3.30;3.00;;;19.70;99.90;;;;;;4982780;28;20038;-81
2021/09/03 09:09:47;;;;;;;4.68;3.00;;;19.60;99.90;;;;;;4995919;28;20396;-81
2021/09/03 09:12:15;;;;;;;3.55;2.72;;;19.60;99.90;;;;;;4996211;28;20032;-81
2021/09/03 09:15:04;;;;;;;7.30;5.03;;;19.70;99.90;;;;;;4976893;28;20046;-82
2021/09/03 09:17:41;;;;;;;5.70;2.58;;;19.70;99.90;;;;;;4992289;28;20050;-81
2021/09/03 09:20:12;;;;;;;3.75;2.70;;;19.90;99.90;;;;;;5004654;28;20629;-81
2021/09/03 09:22:53;;;;;;;3.22;2.67;;;19.90;99.90;;;;;;4991390;28;20062;-81
2021/09/03 09:25:25;;;;;;;2.50;2.13;;;19.90;99.90;;;;;;5000776;28;20057;-81
2021/09/03 09:27:52;;;;;;;3.83;2.35;;;19.80;99.90;;;;;;5001708;28;20040;-81
2021/09/03 09:30:26;;;;;;;5.93;2.92;;;19.90;99.90;;;;;;4987150;28;20072;-81
2021/09/03 09:33:14;;;;;;;3.72;2.63;;;19.90;99.90;;;;;;4991885;28;20030;-80
2021/09/03 09:35:43;;;;;;;3.38;2.42;;;19.90;99.90;;;;;;4981391;28;20030;-80
2021/09/03 09:38:09;;;;;;;3.35;2.40;;;20.00;99.90;;;;;;5000250;28;20100;-81
2021/09/03 09:41:00;;;;;;;4.03;2.72;;;20.00;99.90;;;;;;4974363;28;20035;-81
2021/09/03 09:43:33;;;;;;;4.03;2.83;;;20.10;99.90;;;;;;4981708;28;20037;-81
2021/09/03 09:46:08;;;;;;;2.20;1.98;;;20.10;99.90;;;;;;5005073;28;20034;-81
2021/09/03 09:48:49;;;;;;;4.13;2.63;;;20.10;99.90;;;;;;4999776;28;20034;-82
2021/09/03 09:51:40;;;;;;;3.95;2.75;;;20.20;99.90;;;;;;4994097;28;20472;-81
2021/09/03 09:54:09;;;;;;;5.28;2.95;;;20.20;99.90;;;;;;5001266;28;20138;-81
2021/09/03 09:57:01;;;;;;;3.78;2.67;;;20.20;99.90;;;;;;5004237;28;20037;-81
2021/09/03 09:59:29;;;;;;;4.03;2.42;;;20.20;99.90;;;;;;4973988;28;20045;-80
2021/09/03 10:01:57;;;;;;;3.85;2.90;;;20.20;99.90;;;;;;4988475;28;20149;-81
2021/09/03 10:04:26;;;;;;;5.28;2.45;;;20.20;99.90;;;;;;5003320;28;20026;-81
2021/09/03 10:06:54;;;;;;;3.38;2.70;;;20.20;99.90;;;;;;4985496;28;20113;-81
2021/09/03 10:09:21;;;;;;;5.28;2.60;;;20.30;99.90;;;;;;4989466;28;20099;-81
2021/09/03 10:11:50;;;;;;;7.03;2.88;;;20.30;99.90;;;;;;4982454;28;20029;-81
2021/09/03 10:14:27;;;;;;;3.97;3.28;;;20.40;99.90;;;;;;4985223;28;20046;-81
2021/09/03 10:16:55;;;;;;;3.60;3.00;;;20.50;99.90;;;;;;4982506;28;20034;-81
2021/09/03 10:19:25;;;;;;;4.05;3.22;;;20.60;99.90;;;;;;5000910;28;20042;-81
2021/09/03 10:21:55;;;;;;;3.63;2.80;;;20.70;99.90;;;;;;4956661;28;20491;-81
2021/09/03 10:24:25;;;;;;;3.25;2.83;;;20.70;99.90;;;;;;5002428;28;20047;-83
2021/09/03 10:26:54;;;;;;;3.55;2.63;;;20.70;99.90;;;;;;4996900;28;20045;-81
2021/09/03 10:29:25;;;;;;;3.35;2.40;;;20.70;99.90;;;;;;5006710;28;20041;-81
2021/09/03 10:32:10;;;;;;;4.35;3.03;;;20.60;99.90;;;;;;4999088;28;20667;-81
2021/09/03 10:34:51;;;;;;;4.47;2.70;;;20.60;99.90;;;;;;4996206;28;20109;-81
2021/09/03 10:37:26;;;;;;;4.10;2.78;;;20.60;99.90;;;;;;5007599;28;20110;-81
2021/09/03 10:39:52;;;;;;;;;;;20.50;99.90;;;;;;4992231;28;20037;-81
2021/09/03 10:42:33;;;;;;;;;;;20.60;99.90;;;;;;4988336;28;19905;-81
2021/09/03 10:45:02;;;;;;;2.92;2.60;;;20.80;99.90;;;;;;4999660;28;20047;-81
2021/09/03 10:47:57;;;;;;;4.05;2.70;;;20.80;99.90;;;;;;4997277;28;20468;-80
2021/09/03 10:50:36;;;;;;;3.80;2.70;;;20.90;99.90;;;;;;4997831;28;20046;-82
2021/09/03 10:53:02;;;;;;;3.47;2.80;;;21.00;99.90;;;;;;4985648;28;20060;-81
2021/09/03 10:55:49;;;;;;;3.90;2.80;;;21.00;99.90;;;;;;4993784;28;20061;-82
2021/09/03 10:58:38;;;;;;;3.42;2.47;;;21.00;99.90;;;;;;5000706;28;20030;-81
2021/09/03 11:01:13;;;;;;;3.83;2.67;;;21.10;99.90;;;;;;4968535;28;20133;-81
2021/09/03 11:03:45;;;;;;;4.67;3.30;;;21.10;99.90;;;;;;4995360;28;20053;-81
2021/09/03 11:06:23;;;;;;;3.42;2.78;;;21.20;99.90;;;;;;5000217;28;20323;-81
2021/09/03 11:08:50;;;;;;;5.47;2.92;;;21.30;99.90;;;;;;4996551;28;20042;-81
2021/09/03 11:11:23;;;;;;;3.08;2.75;;;21.40;99.90;;;;;;4976295;28;20045;-81
2021/09/03 11:13:51;;;;;;;4.15;3.03;;;21.50;99.90;;;;;;4998739;28;20116;-82
2021/09/03 11:16:36;;;;;;;4.07;2.70;;;21.50;99.90;;;;;;4984824;28;20022;-82
2021/09/03 11:19:24;;;;;;;4.82;2.85;;;21.50;99.90;;;;;;5006337;28;20753;-83
2021/09/03 11:21:56;;;;;;;4.13;2.35;;;21.50;99.90;;;;;;4996455;28;20030;-81
2021/09/03 11:24:53;;;;;;;3.03;2.70;;;21.60;99.90;;;;;;5003067;28;20176;-82
2021/09/03 11:27:27;;;;;;;5.15;2.78;;;21.60;99.90;;;;;;4961416;28;20111;-82
2021/09/03 11:30:00;;;;;;;4.28;2.47;;;21.60;99.90;;;;;;4982514;28;20048;-81
2021/09/03 11:32:34;;;;;;;2.58;2.28;;;21.70;99.90;;;;;;4983569;28;20022;-82
2021/09/03 11:35:11;;;;;;;3.95;2.95;;;21.70;99.20;;;;;;4970167;28;20041;-82
2021/09/03 11:37:47;;;;;;;4.47;2.65;;;21.80;98.60;;;;;;4996804;28;20022;-81
2021/09/03 11:40:19;;;;;;;4.10;2.72;;;21.80;97.50;;;;;;4990298;28;20037;-81
2021/09/03 11:42:50;;;;;;;6.40;3.10;;;21.90;96.80;;;;;;4993324;28;20042;-82
2021/09/03 11:45:29;;;;;;;3.85;2.47;;;21.90;95.40;;;;;;4964692;28;20077;-82
2021/09/03 11:47:56;;;;;;;3.22;2.38;;;21.90;96.10;;;;;;5003250;28;20042;-82
2021/09/03 11:50:32;;;;;;;3.88;2.55;;;21.90;97.60;;;;;;5002703;28;20084;-82
2021/09/03 11:53:05;;;;;;;3.72;2.75;;;21.90;98.90;;;;;;4973703;28;20027;-82
2021/09/03 11:55:40;;;;;;;3.40;2.50;;;22.00;99.90;;;;;;4989019;28;20034;-82
2021/09/03 11:58:08;;;;;;;4.18;2.88;;;22.00;95.00;;;;;;5003761;28;20030;-82
2021/09/03 12:00:37;;;;;;;3.47;2.90;;;22.00;95.60;;;;;;4992526;28;20064;-82
2021/09/03 12:03:14;;;;;;;3.58;2.42;;;22.10;97.80;;;;;;5005306;23;20038;-80
2021/09/03 12:05:42;;;;;;;4.60;2.70;;;22.20;94.30;;;;;;4991923;28;20041;-77
2021/09/03 12:08:26;;;;;;;4.28;2.75;;;22.30;96.50;;;;;;4986468;28;20420;-77
2021/09/03 12:11:13;;;;;;;3.42;2.38;;;22.40;95.60;;;;;;4981277;28;20118;-77
2021/09/03 12:13:44;;;;;;;3.90;2.63;;;22.40;97.20;;;;;;4958103;28;20027;-78
2021/09/03 12:16:16;;;;;;;3.00;2.60;;;22.60;97.40;;;;;;4989556;28;20034;-79
2021/09/03 12:19:01;;;;;;;3.88;2.92;;;22.70;95.70;;;;;;4992488;28;20125;-78
2021/09/03 12:21:36;;;;;;;5.10;2.92;;;22.80;94.80;;;;;;4986977;28;20030;-78
2021/09/03 12:24:08;;;;;;;4.78;2.72;;;22.90;94.80;;;;;;4987411;28;20094;-79
2021/09/03 12:26:47;;;;;;;3.70;2.58;;;22.80;93.00;;;;;;4982134;28;20037;-79
2021/09/03 12:29:14;;;;;;;3.67;2.67;;;22.90;95.70;;;;;;4975128;28;20045;-79
2021/09/03 12:31:53;;;;;;;2.78;2.47;;;23.10;95.60;;;;;;4974700;28;20035;-80
2021/09/03 12:34:22;;;;;;;3.60;2.75;;;23.20;94.50;;;;;;4990773;28;20639;-80
2021/09/03 12:37:01;;;;;;;3.20;2.53;;;23.30;96.40;;;;;;4992242;28;20035;-80
2021/09/03 12:39:27;;;;;;;3.10;2.67;;;23.50;92.80;;;;;;4985468;28;20139;-78
2021/09/03 12:41:53;;;;;;;4.40;2.80;;;23.60;89.90;;;;;;4984721;28;20058;-79
2021/09/03 12:44:25;;;;;;;3.42;2.53;;;23.60;90.20;;;;;;4988107;28;20049;-77
2021/09/03 12:47:02;;;;;;;2.88;2.40;;;23.60;91.70;;;;;;5002308;28;20046;-78
2021/09/03 12:49:36;;;;;;;3.72;2.90;;;23.60;90.60;;;;;;4986799;28;20161;-78
2021/09/03 12:52:13;;;;;;;3.85;2.35;;;23.60;87.80;;;;;;4990073;28;20035;-80
2021/09/03 12:54:39;;;;;;;5.22;2.97;;;23.50;89.20;;;;;;4990226;28;20465;-77